Time;durP1;ratioP1;P1;durP2;ratioP2;P2;SDS_P1;SDS_P2;PMS_P1;PMS_P2;Temp;Humidity;BMP_temperature;BMP_pressure;BME280_temperature;BME280_humidity;BME280_pressure;Samples;Min_cycle;Max_cycle;Signal;HPM_P1;HPM_P2
2021/10/03 00:01:20;;;;;;;8.08;5.22;;;25.80;99.90;;;;;;1922664;74;21064;-86
2021/10/03 00:03:54;;;;;;;6.87;4.50;;;25.80;99.90;;;;;;1920119;74;21614;-86
2021/10/03 00:06:25;;;;;;;9.98;4.97;;;25.80;99.90;;;;;;1873533;73;21060;-86
2021/10/03 00:08:56;;;;;;;11.60;5.87;;;25.80;99.90;;;;;;1911608;73;21139;-87
2021/10/03 00:11:27;;;;;;;8.90;5.78;;;25.80;99.90;;;;;;1917842;73;21073;-86
2021/10/03 00:13:57;;;;;;;8.98;5.05;;;25.80;99.90;;;;;;1918961;73;21178;-87
2021/10/03 00:16:30;;;;;;;10.08;4.62;;;25.80;99.90;;;;;;1904960;74;22449;-86
2021/10/03 00:19:02;;;;;;;9.68;4.78;;;25.70;99.90;;;;;;1904529;74;21107;-87
2021/10/03 00:21:34;;;;;;;9.83;4.95;;;25.70;99.90;;;;;;1918328;73;21048;-86
2021/10/03 00:24:05;;;;;;;11.68;5.10;;;25.70;99.90;;;;;;1919519;74;21162;-86
2021/10/03 00:26:37;;;;;;;7.65;4.53;;;25.70;99.90;;;;;;1897148;74;21574;-85
2021/10/03 00:29:08;;;;;;;8.48;4.60;;;25.70;99.90;;;;;;1912137;74;21121;-86
2021/10/03 00:31:39;;;;;;;7.40;4.92;;;25.70;99.90;;;;;;1926391;74;21550;-85
2021/10/03 00:37:39;;;;;;;7.65;4.28;;;25.80;99.90;;;;;;1909230;74;21100;-86
2021/10/03 00:40:12;;;;;;;7.72;4.62;;;25.80;99.90;;;;;;1902300;74;21226;-86
2021/10/03 00:42:44;;;;;;;7.65;4.78;;;25.80;99.90;;;;;;1883155;74;21106;-86
2021/10/03 00:45:17;;;;;;;7.10;4.83;;;25.90;99.90;;;;;;1886823;74;21200;-86
2021/10/03 00:47:57;;;;;;;10.72;4.72;;;25.90;99.90;;;;;;1855504;77;21157;-86
2021/10/03 00:50:26;;;;;;;8.70;4.92;;;26.00;99.90;;;;;;1896555;74;21167;-87
2021/10/03 00:52:57;;;;;;;6.72;4.80;;;26.00;99.90;;;;;;1859555;76;21182;-86
2021/10/03 00:55:28;;;;;;;9.70;5.95;;;26.10;99.90;;;;;;1821514;77;21248;-86
2021/10/03 00:57:59;;;;;;;8.80;5.87;;;26.10;99.90;;;;;;1851873;76;21169;-85
2021/10/03 01:00:32;;;;;;;6.15;4.80;;;26.20;99.90;;;;;;1851881;76;21174;-86
2021/10/03 01:03:44;;;;;;;7.15;5.72;;;26.20;99.90;;;;;;1859848;76;21125;-87
2021/10/03 01:06:15;;;;;;;8.30;5.20;;;26.30;99.90;;;;;;1824982;76;21166;-87
2021/10/03 01:08:46;;;;;;;9.10;5.47;;;26.40;99.90;;;;;;1852746;76;21727;-77
2021/10/03 01:11:17;;;;;;;9.90;5.00;;;26.50;99.90;;;;;;1808225;77;22666;-81
2021/10/03 01:13:49;;;;;;;7.67;5.30;;;26.50;99.90;;;;;;1829565;77;21125;-81
2021/10/03 01:16:20;;;;;;;7.22;5.15;;;26.60;99.90;;;;;;1845789;77;21150;-83
2021/10/03 01:18:51;;;;;;;6.00;5.10;;;26.60;99.90;;;;;;1892318;74;21555;-78
2021/10/03 01:21:22;;;;;;;7.03;4.58;;;26.70;99.90;;;;;;1869206;74;21162;-79
2021/10/03 01:23:55;;;;;;;5.10;4.08;;;26.70;99.90;;;;;;1889415;74;21210;-79
2021/10/03 01:30:09;;;;;;;8.50;3.90;;;26.80;99.90;;;;;;1913772;74;21154;-79
2021/10/03 01:32:41;;;;;;;5.10;3.72;;;26.90;99.90;;;;;;1912904;74;21170;-77
2021/10/03 01:42:09;;;;;;;4.67;3.35;;;26.90;99.80;;;;;;1919038;74;21164;-77
2021/10/03 01:44:40;;;;;;;4.30;3.10;;;26.90;99.70;;;;;;1919077;74;21602;-79
2021/10/03 01:47:11;;;;;;;6.47;3.65;;;27.00;99.80;;;;;;1906949;74;21462;-78
2021/10/03 01:49:42;;;;;;;11.00;3.47;;;27.00;99.70;;;;;;1900306;75;21591;-77
2021/10/03 01:52:13;;;;;;;5.97;3.42;;;27.10;99.70;;;;;;1929401;74;21077;-76
2021/10/03 01:54:45;;;;;;;5.30;3.30;;;27.10;99.80;;;;;;1905938;74;21179;-78
2021/10/03 01:57:16;;;;;;;5.90;3.77;;;27.20;99.70;;;;;;1884902;74;21135;-77
2021/10/03 01:59:47;;;;;;;5.30;3.55;;;27.30;99.30;;;;;;1902318;74;21624;-77
2021/10/03 02:02:24;;;;;;;5.58;3.55;;;27.40;99.10;;;;;;1904875;74;21524;-78
2021/10/03 02:04:57;;;;;;;4.97;3.50;;;27.40;98.90;;;;;;1901965;74;21123;-77
2021/10/03 02:07:28;;;;;;;5.83;3.67;;;27.50;98.80;;;;;;1905589;74;21571;-78
2021/10/03 02:09:59;;;;;;;4.85;3.77;;;27.60;98.80;;;;;;1907638;74;21708;-78
2021/10/03 02:12:30;;;;;;;6.30;3.80;;;27.70;98.50;;;;;;1905699;74;21100;-78
2021/10/03 02:15:01;;;;;;;6.00;3.83;;;27.80;98.60;;;;;;1909338;74;21162;-78
2021/10/03 02:17:32;;;;;;;13.45;5.42;;;27.90;98.30;;;;;;1905497;74;21962;-77
2021/10/03 02:20:03;;;;;;;6.40;5.08;;;28.00;98.60;;;;;;1895729;74;21152;-78
2021/10/03 02:22:35;;;;;;;8.88;4.92;;;28.00;98.70;;;;;;1906637;74;21653;-78
2021/10/03 02:25:07;;;;;;;10.72;5.35;;;28.10;98.60;;;;;;1907646;74;21116;-78
2021/10/03 02:27:38;;;;;;;10.43;7.30;;;28.20;98.60;;;;;;1912251;74;21168;-78
2021/10/03 02:30:10;;;;;;;7.90;4.47;;;28.30;98.50;;;;;;1923019;74;21683;-78
2021/10/03 02:32:42;;;;;;;6.85;4.20;;;28.40;98.30;;;;;;1897229;74;21969;-77
2021/10/03 02:35:14;;;;;;;6.10;4.50;;;28.50;98.20;;;;;;1915948;74;21202;-77
2021/10/03 02:37:44;;;;;;;9.98;4.95;;;28.60;98.10;;;;;;1919288;74;21132;-77
2021/10/03 02:40:18;;;;;;;8.33;4.80;;;28.70;97.70;;;;;;1911462;74;21175;-80
2021/10/03 02:42:48;;;;;;;6.75;4.67;;;28.80;97.80;;;;;;1897502;74;21720;-78
2021/10/03 02:45:19;;;;;;;7.25;4.75;;;28.90;97.40;;;;;;1918948;74;21574;-79
2021/10/03 02:47:50;;;;;;;6.58;4.60;;;29.00;97.10;;;;;;1939935;74;21061;-79
2021/10/03 02:50:21;;;;;;;7.55;4.85;;;29.20;97.20;;;;;;1903664;74;21707;-78
2021/10/03 02:53:43;;;;;;;7.60;4.30;;;29.20;97.00;;;;;;1927160;74;21163;-79
2021/10/03 02:56:15;;;;;;;5.30;4.80;;;29.30;96.60;;;;;;1909360;74;21152;-80
2021/10/03 02:58:46;;;;;;;8.55;4.25;;;29.50;96.40;;;;;;1933471;73;21120;-79
2021/10/03 03:01:19;;;;;;;11.25;5.35;;;29.60;96.30;;;;;;1904136;74;21187;-80
2021/10/03 03:03:51;;;;;;;7.40;4.80;;;29.70;96.10;;;;;;1914022;74;21930;-79
2021/10/03 03:06:23;;;;;;;7.30;5.12;;;29.70;96.30;;;;;;1893029;74;21145;-78
2021/10/03 03:08:58;;;;;;;5.15;4.55;;;29.80;96.00;;;;;;1894615;74;21134;-79
2021/10/03 03:11:29;;;;;;;4.97;4.47;;;29.90;96.00;;;;;;1898253;74;21129;-79
2021/10/03 03:14:00;;;;;;;7.17;5.05;;;30.00;95.60;;;;;;1904271;74;21712;-78
2021/10/03 03:19:59;;;;;;;14.55;5.33;;;30.20;95.30;;;;;;1904362;74;21190;-79
2021/10/03 03:22:30;;;;;;;6.42;4.70;;;30.40;94.50;;;;;;1904491;74;21091;-81
2021/10/03 03:25:01;;;;;;;6.87;5.20;;;30.50;94.60;;;;;;1898345;74;21059;-82
2021/10/03 03:27:38;;;;;;;7.35;5.50;;;30.60;95.10;;;;;;1901981;74;21560;-81
2021/10/03 03:33:05;;;;;;;10.30;5.97;;;30.80;94.70;;;;;;1849333;72;21139;-81
2021/10/03 03:35:36;;;;;;;6.03;4.80;;;30.80;94.70;;;;;;1851310;76;21741;-81
2021/10/03 03:38:08;;;;;;;6.12;5.05;;;30.90;93.90;;;;;;1849026;76;21128;-81
2021/10/03 03:40:39;;;;;;;6.53;4.95;;;30.90;93.90;;;;;;1850852;76;21528;-80
2021/10/03 03:43:10;;;;;;;8.13;5.55;;;31.00;93.80;;;;;;1856230;76;21174;-79
2021/10/03 03:45:41;;;;;;;8.18;5.28;;;31.00;93.90;;;;;;1849682;76;21736;-78
2021/10/03 03:48:12;;;;;;;6.92;5.47;;;31.10;93.90;;;;;;1841895;76;21618;-81
2021/10/03 03:50:43;;;;;;;6.40;5.40;;;;;;;;;;1855447;75;21155;-83
2021/10/03 03:53:14;;;;;;;10.23;5.83;;;31.10;93.40;;;;;;1852681;76;21163;-79
2021/10/03 03:55:45;;;;;;;8.13;5.75;;;31.20;94.10;;;;;;1818881;77;21100;-80
2021/10/03 03:58:16;;;;;;;7.28;5.37;;;31.30;93.50;;;;;;1855913;76;21104;-80
2021/10/03 04:00:47;;;;;;;6.67;5.12;;;31.30;93.40;;;;;;1857669;76;21190;-79
2021/10/03 04:03:17;;;;;;;6.87;5.17;;;31.30;93.30;;;;;;1844998;76;21217;-78
2021/10/03 04:05:48;;;;;;;8.48;5.28;;;31.30;92.80;;;;;;1853835;76;21203;-78
2021/10/03 04:08:21;;;;;;;6.12;4.53;;;31.30;93.80;;;;;;1842231;76;21111;-80
2021/10/03 04:10:52;;;;;;;8.93;5.08;;;31.40;92.90;;;;;;1843923;76;21675;-79
2021/10/03 04:13:23;;;;;;;5.78;4.87;;;31.40;93.20;;;;;;1834355;76;21198;-81
2021/10/03 04:15:54;;;;;;;6.85;4.90;;;31.50;92.70;;;;;;1831527;76;21131;-82
2021/10/03 04:18:25;;;;;;;6.35;4.97;;;31.60;92.70;;;;;;1857431;76;21087;-80
2021/10/03 04:20:56;;;;;;;5.28;4.70;;;31.50;92.50;;;;;;1855815;76;21103;-81
2021/10/03 04:23:27;;;;;;;8.85;5.03;;;31.70;92.60;;;;;;1833977;76;21576;-82
2021/10/03 04:26:29;;;;;;;6.45;4.80;;;31.80;92.10;;;;;;1837223;76;21222;-80
2021/10/03 04:28:59;;;;;;;7.67;5.60;;;31.90;92.10;;;;;;1755418;80;21179;-80
2021/10/03 04:31:30;;;;;;;5.05;4.17;;;32.00;92.00;;;;;;1724118;81;21172;-81
2021/10/03 04:34:01;;;;;;;6.67;4.30;;;32.10;91.10;;;;;;1755951;80;21832;-81
2021/10/03 04:36:32;;;;;;;5.60;4.20;;;32.10;90.20;;;;;;1725510;81;21690;-81
2021/10/03 04:39:03;;;;;;;5.25;3.87;;;32.10;92.10;;;;;;1753978;80;21231;-80
2021/10/03 04:45:16;;;;;;;4.62;4.03;;;32.20;91.00;;;;;;1728466;81;21264;-81
2021/10/03 04:47:47;;;;;;;5.95;4.22;;;32.20;90.50;;;;;;1749556;81;21203;-80
2021/10/03 04:50:19;;;;;;;6.55;4.10;;;32.20;90.30;;;;;;1737021;81;21563;-80
2021/10/03 04:52:50;;;;;;;6.22;3.98;;;32.20;89.60;;;;;;1716055;82;21246;-79
2021/10/03 04:55:33;;;;;;;4.67;4.17;;;32.20;90.10;;;;;;1738854;81;21654;-80
2021/10/03 04:58:04;;;;;;;4.15;3.75;;;32.20;90.20;;;;;;1754148;80;21772;-82
2021/10/03 05:00:35;;;;;;;4.90;4.40;;;32.20;90.30;;;;;;1730110;81;21230;-81
2021/10/03 05:03:06;;;;;;;6.22;4.33;;;32.20;90.70;;;;;;1745364;81;21219;-82
2021/10/03 05:05:36;;;;;;;7.90;4.58;;;32.30;90.30;;;;;;1764846;79;21555;-81
2021/10/03 05:08:10;;;;;;;4.50;3.92;;;32.30;90.10;;;;;;1831119;76;21285;-82
2021/10/03 05:10:41;;;;;;;5.03;3.70;;;32.30;90.40;;;;;;1865150;76;21132;-81
2021/10/03 05:13:25;;;;;;;6.10;3.33;;;32.40;90.30;;;;;;1851901;76;21202;-82
2021/10/03 05:15:56;;;;;;;4.42;3.80;;;32.40;89.10;;;;;;1820522;76;21227;-81
2021/10/03 05:18:27;;;;;;;6.28;5.67;;;32.40;87.70;;;;;;1781341;79;21632;-81
2021/10/03 05:20:58;;;;;;;5.62;3.98;;;32.40;88.90;;;;;;1862118;76;21210;-81
2021/10/03 05:23:29;;;;;;;4.20;3.70;;;32.40;88.70;;;;;;1853689;76;22299;-81
2021/10/03 05:26:00;;;;;;;5.25;3.72;;;32.40;86.80;;;;;;1847455;76;21116;-81
2021/10/03 05:28:30;;;;;;;4.42;3.60;;;32.40;87.20;;;;;;1833847;76;21120;-81
2021/10/03 05:31:01;;;;;;;7.05;4.50;;;32.50;88.10;;;;;;1863060;76;21131;-79
2021/10/03 05:37:14;;;;;;;5.20;3.85;;;32.60;87.30;;;;;;1849715;76;21151;-82
2021/10/03 05:39:45;;;;;;;5.15;4.03;;;32.70;86.90;;;;;;1847782;76;21186;-83
2021/10/03 05:42:15;;;;;;;4.72;3.80;;;32.80;88.20;;;;;;1845288;76;21179;-81
2021/10/03 05:44:46;;;;;;;5.00;3.83;;;32.80;88.00;;;;;;1873515;76;21143;-81
2021/10/03 05:47:18;;;;;;;5.65;3.85;;;32.80;88.50;;;;;;1845345;76;21149;-83
2021/10/03 05:49:49;;;;;;;6.95;3.72;;;32.80;88.80;;;;;;1850914;76;21543;-80
2021/10/03 05:52:20;;;;;;;4.70;3.70;;;32.90;88.50;;;;;;1867509;76;21536;-80
2021/10/03 05:54:51;;;;;;;4.53;3.98;;;32.90;88.50;;;;;;1855193;77;21729;-83
2021/10/03 05:57:22;;;;;;;4.50;4.00;;;32.90;88.00;;;;;;1848165;76;22599;-82
2021/10/03 05:59:52;;;;;;;5.83;4.17;;;32.90;88.30;;;;;;1842877;76;21114;-80
2021/10/03 06:02:23;;;;;;;5.05;4.15;;;32.80;88.00;;;;;;1865732;76;21640;-78
2021/10/03 06:04:54;;;;;;;5.85;4.30;;;32.80;88.30;;;;;;1852573;76;21265;-81
2021/10/03 06:07:29;;;;;;;6.03;4.30;;;32.80;88.40;;;;;;1855234;76;21231;-80
2021/10/03 06:09:59;;;;;;;5.33;3.90;;;32.90;89.00;;;;;;1842588;76;21162;-82
2021/10/03 06:12:30;;;;;;;5.25;4.20;;;32.90;88.90;;;;;;1848517;77;21143;-80
2021/10/03 06:15:09;;;;;;;5.80;4.47;;;32.90;87.50;;;;;;1723837;81;21476;-81
2021/10/03 06:17:40;;;;;;;7.22;4.10;;;32.90;87.90;;;;;;1761146;80;21730;-80
2021/10/03 06:20:13;;;;;;;5.10;4.20;;;32.90;87.60;;;;;;1771718;81;21314;-79
2021/10/03 06:22:46;;;;;;;5.00;4.50;;;32.90;88.00;;;;;;1782355;79;21841;-78
2021/10/03 06:25:16;;;;;;;5.75;4.00;;;32.90;88.40;;;;;;1768680;79;21724;-79
2021/10/03 06:27:48;;;;;;;4.60;4.12;;;32.90;88.30;;;;;;1776014;79;21671;-81
2021/10/03 06:30:20;;;;;;;4.95;4.03;;;32.90;87.70;;;;;;1762407;80;21259;-82
2021/10/03 06:39:48;;;;;;;6.47;3.80;;;32.90;87.50;;;;;;1765377;79;21150;-78
2021/10/03 06:42:19;;;;;;;7.28;4.62;;;32.90;88.00;;;;;;1756994;79;21238;-79
2021/10/03 06:44:49;;;;;;;5.95;4.53;;;32.90;88.40;;;;;;1768912;80;21190;-79
2021/10/03 06:47:29;;;;;;;5.37;4.60;;;32.90;88.40;;;;;;1757259;79;21270;-80
2021/10/03 06:50:06;;;;;;;;;;;32.90;88.50;;;;;;1756009;80;21289;-78
2021/10/03 06:53:05;;;;;;;6.35;4.45;;;32.90;88.40;;;;;;1770189;78;20229;-78
2021/10/03 06:55:36;;;;;;;5.60;4.75;;;32.90;87.90;;;;;;1782894;79;21188;-78
2021/10/03 06:58:06;;;;;;;6.40;4.08;;;32.90;87.60;;;;;;1848892;75;21165;-78
2021/10/03 07:00:40;;;;;;;5.25;4.20;;;32.90;87.30;;;;;;1843030;76;21736;-78
2021/10/03 07:03:11;;;;;;;6.80;4.70;;;32.90;87.40;;;;;;1777588;80;21721;-79
2021/10/03 07:05:42;;;;;;;6.15;4.47;;;32.90;87.30;;;;;;1838948;77;21159;-79
2021/10/03 07:08:13;;;;;;;7.08;4.60;;;32.90;87.10;;;;;;1820311;78;21175;-79
2021/10/03 07:10:44;;;;;;;6.25;4.30;;;32.90;86.00;;;;;;1820398;77;21160;-78
2021/10/03 07:13:14;;;;;;;5.47;4.62;;;32.90;87.20;;;;;;1852044;75;21557;-79
2021/10/03 07:15:45;;;;;;;4.47;4.08;;;32.90;87.20;;;;;;1853660;75;21152;-78
2021/10/03 07:18:16;;;;;;;6.65;4.75;;;32.80;87.80;;;;;;1855355;75;21167;-78
2021/10/03 07:21:08;;;;;;;;;;;;;;;;;;;;;
2021/10/03 07:24:20;;;;;;;5.87;4.20;;;32.80;87.50;;;;;;1755320;78;21133;-78
2021/10/03 07:27:18;;;;;;;5.20;4.42;;;32.70;88.30;;;;;;1747939;79;21176;-78
2021/10/03 07:29:51;;;;;;;6.37;4.55;;;32.70;88.40;;;;;;1749898;81;21704;-79
2021/10/03 07:32:22;;;;;;;5.50;4.28;;;32.70;89.10;;;;;;1784675;79;21303;-77
2021/10/03 07:35:25;;;;;;;6.55;4.40;;;32.80;87.60;;;;;;1789461;79;21121;-79
2021/10/03 07:37:59;;;;;;;6.75;4.35;;;32.80;87.60;;;;;;1713348;83;21684;-82
2021/10/03 07:40:29;;;;;;;6.00;4.92;;;32.90;88.20;;;;;;1758049;81;21235;-79
2021/10/03 07:43:01;;;;;;;6.03;4.72;;;32.90;87.00;;;;;;1706812;83;21175;-81
2021/10/03 07:45:37;;;;;;;4.92;4.10;;;32.90;87.70;;;;;;1707385;83;21187;-80
2021/10/03 07:48:05;;;;;;;5.83;4.47;;;33.00;88.50;;;;;;1732346;83;21372;-81
2021/10/03 07:50:36;;;;;;;5.70;4.40;;;33.00;87.70;;;;;;1734110;81;21219;-81
2021/10/03 07:53:06;;;;;;;7.90;4.70;;;33.00;87.70;;;;;;1723611;83;21712;-80
2021/10/03 07:55:37;;;;;;;5.37;4.67;;;32.90;87.60;;;;;;1713854;83;21260;-81
2021/10/03 07:58:09;;;;;;;5.60;4.90;;;32.80;88.30;;;;;;1742991;81;21804;-81
2021/10/03 08:00:44;;;;;;;6.70;5.15;;;32.70;89.90;;;;;;1769147;80;21290;-80
2021/10/03 08:03:29;;;;;;;5.95;4.90;;;32.60;90.30;;;;;;1769601;80;21693;-80
2021/10/03 08:06:05;;;;;;;6.60;5.40;;;32.50;90.30;;;;;;1791599;78;21166;-79
2021/10/03 08:08:35;;;;;;;7.08;5.10;;;32.40;90.60;;;;;;1761340;81;21207;-80
2021/10/03 08:11:07;;;;;;;5.30;4.80;;;32.40;90.40;;;;;;1730831;81;21699;-80
2021/10/03 08:13:39;;;;;;;6.17;5.55;;;32.30;90.70;;;;;;1774420;80;21211;-79
2021/10/03 08:16:11;;;;;;;6.08;5.20;;;32.30;90.70;;;;;;1825243;77;21703;-78
2021/10/03 08:18:47;;;;;;;8.40;5.60;;;32.30;90.90;;;;;;1872051;76;21627;-80
2021/10/03 08:21:17;;;;;;;7.45;5.20;;;32.20;90.80;;;;;;1848572;76;21602;-79
2021/10/03 08:23:48;;;;;;;7.55;5.37;;;32.20;90.70;;;;;;1858925;76;21712;-79
2021/10/03 08:26:19;;;;;;;8.95;5.60;;;32.20;90.90;;;;;;1854972;76;21166;-81
2021/10/03 08:28:51;;;;;;;7.65;5.58;;;32.20;90.80;;;;;;1842845;76;21167;-80
2021/10/03 08:31:44;;;;;;;26.00;5.83;;;32.20;90.80;;;;;;1844108;76;21169;-79
2021/10/03 08:34:15;;;;;;;5.92;5.20;;;32.20;90.90;;;;;;1787404;78;21728;-79
2021/10/03 08:36:47;;;;;;;6.42;4.90;;;32.20;90.90;;;;;;1786910;78;21291;-79
2021/10/03 08:39:18;;;;;;;6.45;4.80;;;32.10;90.80;;;;;;1786800;78;21274;-81
2021/10/03 08:41:49;;;;;;;19.73;5.40;;;32.10;90.80;;;;;;1785717;78;21183;-79
2021/10/03 08:44:20;;;;;;;5.87;5.00;;;32.00;90.90;;;;;;1788407;78;21223;-78
2021/10/03 08:46:52;;;;;;;5.85;4.90;;;32.00;91.00;;;;;;1788716;78;21590;-80
2021/10/03 08:49:26;;;;;;;6.42;4.80;;;32.00;91.00;;;;;;1804113;79;21176;-79
2021/10/03 08:52:00;;;;;;;5.33;4.75;;;32.00;91.00;;;;;;1777047;80;21329;-80
2021/10/03 08:54:31;;;;;;;5.42;4.70;;;32.00;90.80;;;;;;1780648;79;21714;-81
2021/10/03 09:00:31;;;;;;;5.33;4.83;;;31.90;90.90;;;;;;1790302;79;21123;-81
2021/10/03 09:03:05;;;;;;;9.28;4.78;;;31.80;91.00;;;;;;1779630;80;21203;-81
2021/10/03 09:05:38;;;;;;;5.75;5.15;;;31.80;91.20;;;;;;1795815;78;21230;-81
2021/10/03 09:08:12;;;;;;;5.62;5.03;;;31.70;91.50;;;;;;1800425;77;21733;-81
2021/10/03 09:10:45;;;;;;;5.95;4.47;;;31.80;91.50;;;;;;1825857;77;21641;-80
2021/10/03 09:13:26;;;;;;;8.80;5.22;;;31.70;91.40;;;;;;1858104;75;22800;-80
2021/10/03 09:15:59;;;;;;;5.47;4.75;;;31.70;91.60;;;;;;1836244;76;21152;-81
2021/10/03 09:18:33;;;;;;;7.25;4.92;;;31.80;91.70;;;;;;1854168;76;21586;-80
2021/10/03 09:21:05;;;;;;;6.65;4.75;;;31.70;91.70;;;;;;1865476;75;21245;-81
2021/10/03 09:23:36;;;;;;;6.05;5.30;;;31.70;91.70;;;;;;1830842;76;21639;-80
2021/10/03 09:26:11;;;;;;;5.72;4.50;;;31.60;91.60;;;;;;1867465;76;21201;-80
2021/10/03 09:28:42;;;;;;;5.22;4.62;;;31.60;91.60;;;;;;1865769;76;21665;-81
2021/10/03 09:34:49;;;;;;;5.33;4.40;;;31.60;91.40;;;;;;1850328;76;21127;-81
2021/10/03 09:37:19;;;;;;;7.87;4.75;;;31.60;91.10;;;;;;1865107;76;21622;-80
2021/10/03 09:39:51;;;;;;;9.75;5.50;;;31.60;91.10;;;;;;1848278;76;21135;-79
2021/10/03 09:42:23;;;;;;;7.10;4.67;;;31.60;91.30;;;;;;1845875;76;21089;-79
2021/10/03 09:44:57;;;;;;;10.43;4.53;;;31.60;91.30;;;;;;1848019;76;21558;-79
2021/10/03 09:48:02;;;;;;;9.15;5.15;;;31.60;91.20;;;;;;1856418;76;21084;-79
2021/10/03 09:50:34;;;;;;;5.53;4.67;;;31.60;91.20;;;;;;1855115;76;21641;-80
2021/10/03 09:53:05;;;;;;;5.42;4.92;;;31.60;91.30;;;;;;1860985;76;21221;-80
2021/10/03 09:55:37;;;;;;;6.60;4.22;;;31.60;91.50;;;;;;1848684;76;21617;-80
2021/10/03 09:58:09;;;;;;;5.83;4.60;;;31.50;91.60;;;;;;1849309;76;21119;-79
2021/10/03 10:00:39;;;;;;;6.45;4.55;;;31.50;91.60;;;;;;1846628;76;21135;-79
2021/10/03 10:03:11;;;;;;;6.17;4.78;;;31.50;91.60;;;;;;1843821;76;21211;-79
2021/10/03 10:05:43;;;;;;;7.35;5.00;;;31.50;91.60;;;;;;1842187;76;21658;-79
2021/10/03 10:08:13;;;;;;;5.55;4.83;;;31.40;91.70;;;;;;1849767;77;21117;-79
2021/10/03 10:10:44;;;;;;;5.87;4.72;;;31.40;91.90;;;;;;1849838;77;21232;-79
2021/10/03 10:13:17;;;;;;;8.03;5.05;;;31.40;92.10;;;;;;1858725;76;21085;-78
2021/10/03 10:15:49;;;;;;;6.28;4.83;;;31.40;91.90;;;;;;1874818;76;21088;-77
2021/10/03 10:22:03;;;;;;;7.83;5.40;;;31.40;92.30;;;;;;1834156;76;21579;-77
2021/10/03 10:24:37;;;;;;;6.65;5.55;;;31.30;92.40;;;;;;1844931;76;21249;-78
2021/10/03 10:27:07;;;;;;;6.08;4.83;;;31.30;92.50;;;;;;1841112;76;21686;-78
2021/10/03 10:29:40;;;;;;;6.12;5.22;;;31.30;92.60;;;;;;1845077;76;21512;-80
2021/10/03 10:32:12;;;;;;;13.80;9.10;;;31.20;92.60;;;;;;1844690;76;21230;-79
2021/10/03 10:35:33;;;;;;;8.50;7.60;;;31.20;92.60;;;;;;1840925;78;21163;-78
2021/10/03 10:38:07;;;;;;;7.47;5.45;;;31.20;92.70;;;;;;1848063;76;21159;-76
2021/10/03 10:40:37;;;;;;;13.18;9.88;;;31.20;92.80;;;;;;1854308;76;21179;-78
2021/10/03 10:43:11;;;;;;;8.63;7.10;;;31.20;92.90;;;;;;1844166;76;21100;-80
2021/10/03 10:45:44;;;;;;;6.92;5.95;;;31.20;93.20;;;;;;1850750;76;21206;-81
2021/10/03 10:48:16;;;;;;;8.83;6.47;;;31.10;93.00;;;;;;1808975;78;21645;-80
2021/10/03 10:54:28;;;;;;;6.87;5.65;;;31.10;92.90;;;;;;1819894;78;21147;-79
2021/10/03 10:57:01;;;;;;;7.17;6.05;;;31.10;92.90;;;;;;1879220;76;21141;-80
2021/10/03 10:59:32;;;;;;;7.80;5.70;;;31.10;92.80;;;;;;1881482;76;21685;-80
2021/10/03 11:02:03;;;;;;;6.08;5.35;;;31.00;92.80;;;;;;1862709;75;21225;-79
2021/10/03 11:04:34;;;;;;;6.10;5.40;;;31.00;92.80;;;;;;1843851;76;21586;-79
2021/10/03 11:07:07;;;;;;;8.00;5.65;;;31.00;92.90;;;;;;1843326;76;21384;-81
2021/10/03 11:09:40;;;;;;;7.15;5.80;;;30.90;92.90;;;;;;1810526;77;21087;-78
2021/10/03 11:12:11;;;;;;;9.38;6.10;;;30.90;92.90;;;;;;1846630;77;21562;-88
2021/10/03 11:14:42;;;;;;;8.20;5.97;;;30.90;92.90;;;;;;1849185;76;21191;-87
2021/10/03 11:17:17;;;;;;;6.37;5.78;;;30.80;92.90;;;;;;1849505;76;21707;-88
2021/10/03 11:19:49;;;;;;;6.20;5.60;;;30.80;92.90;;;;;;1843758;78;21669;-90
2021/10/03 11:22:23;;;;;;;9.20;6.35;;;30.80;92.90;;;;;;1843458;76;21128;-88
2021/10/03 11:25:28;;;;;;;8.33;5.95;;;30.80;93.00;;;;;;1843135;78;21229;-89
2021/10/03 11:34:21;;;;;;;12.40;8.75;;;30.70;92.90;;;;;;1778092;80;21547;-89
2021/10/03 11:36:52;;;;;;;15.28;10.95;;;30.70;93.00;;;;;;1773989;79;21555;-91
2021/10/03 11:39:25;;;;;;;20.08;12.53;;;30.70;93.10;;;;;;1753593;80;21202;-90
2021/10/03 11:41:56;;;;;;;18.20;12.73;;;30.70;93.20;;;;;;1752892;82;21186;-90
2021/10/03 11:44:27;;;;;;;15.50;9.65;;;30.60;93.10;;;;;;1760810;80;21163;-90
2021/10/03 11:47:00;;;;;;;14.13;8.10;;;30.60;93.20;;;;;;1783363;80;21179;-87
2021/10/03 11:49:33;;;;;;;11.22;8.15;;;30.60;93.20;;;;;;1773977;80;21116;-90
2021/10/03 11:52:06;;;;;;;12.20;7.70;;;30.60;93.20;;;;;;1775976;80;21253;-90
2021/10/03 11:54:39;;;;;;;10.45;7.67;;;30.60;93.10;;;;;;1780775;79;21183;-91
2021/10/03 11:57:12;;;;;;;10.58;7.53;;;30.50;93.10;;;;;;1752891;80;21187;-90
2021/10/03 11:59:44;;;;;;;10.50;7.30;;;30.50;93.00;;;;;;1751477;82;21330;-90
2021/10/03 12:02:17;;;;;;;10.80;7.17;;;30.50;93.00;;;;;;1753098;81;21135;-90
2021/10/03 12:04:51;;;;;;;10.82;7.42;;;30.50;93.10;;;;;;1782068;78;21599;-90
2021/10/03 12:07:22;;;;;;;10.88;7.55;;;30.50;93.00;;;;;;1868901;75;21183;-90
2021/10/03 12:09:55;;;;;;;10.93;8.05;;;30.40;93.20;;;;;;1835087;78;21607;-87
2021/10/03 12:13:03;;;;;;;10.48;8.28;;;30.40;93.30;;;;;;1832195;77;21667;-89
2021/10/03 12:15:36;;;;;;;11.68;9.08;;;30.40;93.50;;;;;;1831464;77;21205;-90
2021/10/03 12:18:09;;;;;;;10.98;8.50;;;30.40;93.40;;;;;;1845883;77;21147;-89
2021/10/03 12:20:43;;;;;;;10.45;8.55;;;30.40;93.90;;;;;;1852610;77;21124;-90
2021/10/03 12:23:14;;;;;;;15.00;9.83;;;30.40;94.10;;;;;;1851446;77;21646;-90
2021/10/03 12:29:02;;;;;;;16.55;11.18;;;30.30;94.80;;;;;;1834229;77;21174;-90
2021/10/03 12:31:36;;;;;;;14.63;11.45;;;30.30;95.10;;;;;;1815012;79;21689;-90
2021/10/03 12:34:10;;;;;;;17.52;11.40;;;30.20;95.00;;;;;;1819695;77;21107;-89
2021/10/03 12:36:45;;;;;;;16.27;11.33;;;30.20;95.40;;;;;;1811225;79;21139;-90
2021/10/03 12:39:18;;;;;;;14.15;11.35;;;30.10;95.60;;;;;;1823496;77;21143;-91
2021/10/03 12:41:50;;;;;;;15.18;10.90;;;30.10;95.60;;;;;;1825741;78;21158;-91
2021/10/03 12:44:23;;;;;;;13.48;9.70;;;30.00;95.60;;;;;;1825279;78;21155;-90
2021/10/03 12:47:01;;;;;;;15.72;9.30;;;29.90;95.50;;;;;;1825260;78;21116;-92
2021/10/03 12:49:50;;;;;;;;;;;;;;;;;;;;;
2021/10/03 12:52:26;;;;;;;16.82;9.80;;;29.80;95.30;;;;;;1833322;77;21140;-89
2021/10/03 12:54:58;;;;;;;14.75;10.28;;;29.80;95.80;;;;;;1791537;79;21195;-93
2021/10/03 12:57:29;;;;;;;11.68;9.20;;;29.70;95.50;;;;;;1813225;79;21069;-91
2021/10/03 13:00:00;;;;;;;11.70;8.20;;;29.60;95.50;;;;;;1849357;76;21566;-91
2021/10/03 13:05:39;;;;;;;11.38;7.90;;;29.60;95.00;;;;;;1768198;80;21240;-92
2021/10/03 13:08:12;;;;;;;12.13;8.68;;;29.60;95.00;;;;;;1756663;82;21289;-92
2021/10/03 13:10:44;;;;;;;12.23;8.28;;;29.60;95.00;;;;;;1755879;82;21175;-92
2021/10/03 13:13:15;;;;;;;11.38;8.65;;;29.60;95.10;;;;;;1756685;79;21202;-92
2021/10/03 13:15:45;;;;;;;10.43;8.50;;;29.60;95.20;;;;;;1758478;80;21232;-90
2021/10/03 13:18:19;;;;;;;13.05;9.33;;;29.60;95.20;;;;;;1759915;80;21146;-90
2021/10/03 13:20:51;;;;;;;13.62;9.10;;;29.50;95.30;;;;;;1764753;80;21242;-91
2021/10/03 13:26:50;;;;;;;15.63;10.30;;;29.50;95.70;;;;;;1727984;81;21123;-90
2021/10/03 13:29:21;;;;;;;14.03;10.95;;;29.40;96.00;;;;;;1729947;81;21230;-90
2021/10/03 13:31:54;;;;;;;13.35;10.40;;;29.40;96.60;;;;;;1757618;80;21151;-90
2021/10/03 13:34:32;;;;;;;12.82;10.80;;;29.30;96.50;;;;;;1743953;81;21787;-90
2021/10/03 13:37:04;;;;;;;13.48;11.43;;;29.30;96.80;;;;;;1722951;82;21238;-92
2021/10/03 13:39:40;;;;;;;13.50;11.00;;;29.20;97.10;;;;;;1758192;80;21663;-91
2021/10/03 13:42:10;;;;;;;15.18;10.85;;;29.10;97.20;;;;;;1790016;77;21585;-89
2021/10/03 13:48:12;;;;;;;12.88;10.45;;;29.00;97.40;;;;;;1843359;78;21167;-90
2021/10/03 13:50:42;;;;;;;14.63;10.18;;;29.00;97.50;;;;;;1843299;76;21198;-91
2021/10/03 13:53:12;;;;;;;16.05;10.65;;;28.90;97.60;;;;;;1841089;76;21206;-91
2021/10/03 13:55:44;;;;;;;15.83;10.70;;;28.90;97.50;;;;;;1844365;76;21660;-90
2021/10/03 13:58:19;;;;;;;12.35;10.30;;;28.90;97.40;;;;;;1843362;76;21207;-91
2021/10/03 14:00:46;;;;;;;13.13;10.90;;;28.90;98.00;;;;;;1845462;76;21666;-91
2021/10/03 14:03:18;;;;;;;12.28;10.30;;;28.90;97.70;;;;;;1837564;76;21118;-90
2021/10/03 14:05:48;;;;;;;15.63;11.22;;;28.90;97.80;;;;;;1855993;76;21104;-91
2021/10/03 14:08:19;;;;;;;17.17;11.18;;;28.90;97.80;;;;;;1854295;76;21138;-91
2021/10/03 14:10:50;;;;;;;15.40;10.50;;;28.90;97.80;;;;;;1867452;75;21164;-91
2021/10/03 14:13:24;;;;;;;13.18;10.20;;;28.90;97.80;;;;;;1850399;76;21076;-91
2021/10/03 14:15:55;;;;;;;11.83;9.40;;;28.90;97.70;;;;;;1839596;77;21670;-88
2021/10/03 14:18:29;;;;;;;17.62;10.50;;;28.80;97.70;;;;;;1813820;79;21145;-90
2021/10/03 14:30:50;;;;;;;13.75;10.43;;;28.70;97.90;;;;;;1603849;86;21236;-91
2021/10/03 14:33:56;;;;;;;12.67;10.70;;;28.70;98.10;;;;;;1987707;70;27804;-89
2021/10/03 14:36:27;;;;;;;17.02;10.90;;;28.60;98.40;;;;;;1973868;71;21509;-89